Purdue Univ, IN

10:04 PM EDT on July 27, 2016 (GMT -0400)
Purdue Univ | | Change Station

Elev 604 ft 40.41 °N, 86.93 °W | Updated 10 minutes ago

Scattered Clouds
Scattered Clouds
74 °F
Feels Like 74 °F
N
4
Wind Variable Wind from NW

Today
High -- | Low -- °F
--% Chance of Precip.
Yesterday
High -- | Low -- °F
Precip. -- in
Pressure 29.93 in
Visibility 10.0 miles
Clouds Scattered Clouds 11000 ft
Dew Point 70 °F
Humidity 87%
Rainfall 0.00 in
Snow Depth Not available.
6:41 AM 9:06 PM
Last Quarter, 37% visible
METAR KLAF 280154Z AUTO 32003KT 10SM SCT110 23/21 A2994 RMK AO2 SLP133 T02330211
Pressure 29.93 in
Visibility 10.0 miles
Clouds Scattered Clouds 11000 ft
Dew Point 70 °F
Humidity 87%
Rainfall 0.00 in
Snow Depth Not available.
6:41 AM 9:06 PM
Last Quarter, 37% visible
METAR KLAF 280154Z AUTO 32003KT 10SM SCT110 23/21 A2994 RMK AO2 SLP133 T02330211

10-Day Weather Forecast

Almanac

Astronomy

Jul. 27, 2016 Rise Set
Actual Time
Civil Twilight
Nautical Twilight
Astronomical Twilight
Moon
Length of Visible Light
Length of Day
Tomorrow will be .
, % of the Moon is Illuminated

Today's Extremes

State Highs State Lows

Community

WunderPhotos

Upload Photos

1,928,008 photos uploaded!

WunderBlog® & News

Nearby

Air Quality

  Air Quality AQ Index Pollutant
Not available.

Snow Depth

Station Depth Elevation

Earthquake Activity

City Distance Mag. Time & Date
Minimum magnitude displayed is 2.5.

Coastal Water Temperatures

Place Temperature

Stations

Nearby Weather Stations

Station Location Temp. Windchill Dew Point Humidity Wind Precip. Elev Updated Type
                   

Watches & Warnings

There are currently no watches in effect.